createdAt,value
2023-04-11T00:02:09.362Z,89.69
2023-04-11T00:07:13.216Z,89.61
2023-04-11T00:12:17.394Z,89.70
2023-04-11T00:17:21.625Z,89.75
2023-04-11T00:22:25.507Z,89.59
2023-04-11T00:27:29.535Z,89.87
2023-04-11T00:32:33.209Z,90.13
2023-04-11T00:37:39.371Z,90.10
2023-04-11T00:42:43.223Z,90.53
2023-04-11T00:47:47.073Z,90.03
2023-04-11T00:52:51.944Z,89.89
2023-04-11T00:57:56.929Z,89.89
2023-04-11T01:03:01.554Z,90.00
2023-04-11T01:08:06.710Z,90.12
2023-04-11T01:13:10.420Z,90.15
2023-04-11T01:18:15.795Z,90.12
2023-04-11T01:23:23.728Z,90.17
2023-04-11T01:28:27.436Z,90.19
2023-04-11T01:33:31.729Z,90.44
2023-04-11T01:38:35.621Z,90.30
2023-04-11T01:43:39.404Z,90.64
2023-04-11T01:48:45.897Z,91.00
2023-04-11T01:53:49.832Z,91.08
2023-04-11T01:58:53.795Z,91.05
2023-04-11T02:03:57.908Z,91.06
2023-04-11T02:09:02.020Z,91.13
2023-04-11T02:14:06.662Z,91.31
2023-04-11T02:19:10.460Z,91.42
2023-04-11T02:24:14.437Z,91.30
2023-04-11T02:29:18.858Z,91.31
2023-04-11T02:34:23.003Z,91.29
2023-04-11T02:39:26.761Z,91.28
2023-04-11T02:44:32.603Z,91.38
2023-04-11T02:49:37.124Z,91.51
2023-04-11T02:54:41.927Z,91.46
2023-04-11T02:59:45.873Z,91.45
2023-04-11T03:04:52.499Z,91.43
2023-04-11T03:09:56.693Z,91.41
2023-04-11T03:15:00.485Z,91.40
2023-04-11T03:20:07.519Z,91.46
2023-04-11T03:25:11.635Z,91.51
2023-04-11T03:30:16.341Z,91.52
2023-04-11T03:35:22.865Z,91.58
2023-04-11T03:40:27.149Z,91.54
2023-04-11T03:45:39.868Z,91.58
2023-04-11T03:50:48.401Z,91.55
2023-04-11T03:55:54.892Z,91.56
2023-04-11T04:01:08.339Z,91.65
2023-04-11T04:06:17.608Z,91.64
2023-04-11T04:11:23.627Z,91.68
2023-04-11T04:16:30.019Z,91.77
2023-04-11T04:21:38.403Z,91.78
2023-04-11T04:26:42.474Z,91.75
2023-04-11T04:31:57.396Z,92.01
2023-04-11T04:37:21.919Z,92.13
2023-04-11T04:42:29.722Z,92.21
2023-04-11T04:47:38.981Z,92.39
2023-04-11T04:52:43.207Z,92.67
2023-04-11T04:57:47.034Z,92.94
2023-04-11T05:02:55.451Z,92.85
2023-04-11T05:08:01.629Z,92.47
2023-04-11T05:13:06.884Z,92.01
2023-04-11T05:18:10.904Z,91.98
2023-04-11T05:23:15.235Z,91.83
2023-04-11T05:28:20.077Z,91.54
2023-04-11T05:33:25.184Z,91.78
2023-04-11T05:38:29.605Z,91.75
2023-04-11T05:43:33.562Z,91.41
2023-04-11T05:48:39.870Z,91.43
2023-04-11T05:53:44.422Z,91.27
2023-04-11T05:58:48.294Z,91.17
2023-04-11T06:03:52.225Z,91.10
2023-04-11T06:08:56.062Z,90.83
2023-04-11T06:13:59.716Z,90.62
2023-04-11T06:19:04.829Z,90.32
2023-04-11T06:24:10.533Z,90.19
2023-04-11T06:29:15.672Z,89.89
2023-04-11T06:34:20.228Z,89.61
2023-04-11T06:39:24.053Z,89.50
2023-04-11T06:44:28.191Z,89.29
2023-04-11T06:49:32.076Z,88.72
2023-04-11T06:54:35.859Z,88.87
2023-04-11T06:59:39.759Z,88.48
2023-04-11T07:04:43.764Z,88.52
2023-04-11T07:09:47.987Z,88.14
2023-04-11T07:14:51.696Z,87.71
2023-04-11T07:19:55.416Z,87.75
2023-04-11T07:24:59.165Z,87.33
2023-04-11T07:30:04.212Z,87.17
2023-04-11T07:35:08.476Z,86.76
2023-04-11T07:40:15.986Z,86.67
2023-04-11T07:45:21.140Z,86.45
2023-04-11T07:50:24.971Z,85.91
2023-04-11T07:55:28.723Z,86.10
2023-04-11T08:00:36.996Z,85.83
2023-04-11T08:05:43.679Z,85.28
2023-04-11T08:10:47.955Z,84.94
2023-04-11T08:15:52.615Z,84.54
2023-04-11T08:20:58.451Z,83.19
2023-04-11T08:26:02.377Z,82.87
2023-04-11T08:31:06.408Z,82.24
2023-04-11T08:36:11.170Z,81.34
2023-04-11T08:41:15.026Z,81.30
2023-04-11T08:46:29.666Z,80.54
2023-04-11T08:51:35.546Z,80.12
2023-04-11T08:56:43.248Z,79.59
2023-04-11T09:01:47.102Z,77.24
2023-04-11T09:07:00.712Z,77.84
2023-04-11T09:12:05.633Z,77.22
2023-04-11T09:17:17.322Z,75.55
2023-04-11T09:22:22.343Z,75.05
2023-04-11T09:27:26.844Z,74.16
2023-04-11T09:32:35.106Z,72.43
2023-04-11T09:37:44.643Z,72.34
2023-04-11T09:42:49.811Z,72.68
2023-04-11T09:47:56.281Z,69.55
2023-04-11T09:53:00.336Z,71.22
2023-04-11T09:58:05.825Z,68.62
2023-04-11T10:03:09.885Z,68.03
2023-04-11T10:08:33.162Z,66.38
2023-04-11T10:13:39.928Z,66.15
2023-04-11T10:18:52.894Z,65.97
2023-04-11T10:24:21.811Z,65.92
2023-04-11T10:29:33.591Z,63.36
2023-04-11T10:34:41.249Z,63.17
2023-04-11T10:39:52.158Z,61.85
2023-04-11T10:45:15.289Z,61.92
2023-04-11T10:50:29.063Z,61.90
2023-04-11T10:55:48.402Z,61.80
2023-04-11T11:01:01.069Z,61.61
2023-04-11T11:06:10.192Z,61.77
2023-04-11T11:11:16.790Z,58.20
2023-04-11T11:16:22.841Z,58.73
2023-04-11T11:21:28.959Z,61.18
2023-04-11T11:26:40.850Z,62.33
2023-04-11T11:31:46.191Z,63.21
2023-04-11T11:36:50.111Z,66.58
2023-04-11T11:41:54.278Z,69.61
2023-04-11T11:47:06.078Z,71.51
2023-04-11T11:52:09.884Z,72.41
2023-04-11T11:57:23.071Z,74.51
2023-04-11T12:02:28.015Z,75.65
2023-04-11T12:07:34.453Z,77.76
2023-04-11T12:12:42.994Z,78.64
2023-04-11T12:17:51.748Z,79.15
2023-04-11T12:22:56.614Z,80.25
2023-04-11T12:28:00.583Z,80.36
2023-04-11T12:33:04.815Z,81.35
2023-04-11T12:38:09.249Z,82.53
2023-04-11T12:43:17.363Z,83.23
2023-04-11T12:48:26.305Z,85.11
2023-04-11T12:53:34.048Z,87.63
2023-04-11T12:58:42.513Z,88.42
2023-04-11T13:03:51.522Z,87.66
2023-04-11T13:09:01.123Z,86.68
2023-04-11T13:14:07.287Z,86.47
2023-04-11T13:19:11.457Z,86.32
2023-04-11T13:24:18.016Z,85.94
2023-04-11T13:29:23.456Z,84.71
2023-04-11T13:34:28.464Z,84.88
2023-04-11T13:39:35.618Z,83.65
2023-04-11T13:44:46.007Z,82.61
2023-04-11T13:49:56.839Z,81.35
2023-04-11T13:55:01.447Z,80.47
2023-04-11T14:00:12.613Z,81.82
2023-04-11T14:05:19.648Z,82.11
2023-04-11T14:10:24.683Z,82.93
2023-04-11T14:21:18.989Z,83.53
2023-04-11T14:26:23.230Z,83.01
2023-04-11T14:31:30.849Z,82.97
2023-04-11T14:36:37.990Z,81.81
2023-04-11T14:41:44.820Z,81.93
2023-04-11T14:46:48.848Z,81.76
2023-04-11T14:51:56.669Z,81.90
2023-04-11T14:57:05.103Z,82.16
2023-04-11T15:02:13.292Z,82.35
2023-04-11T15:07:18.810Z,82.64
2023-04-11T15:12:23.880Z,83.84
2023-04-11T15:17:29.456Z,84.07
2023-04-11T15:22:39.421Z,84.09
2023-04-11T15:27:46.161Z,83.41
2023-04-11T15:32:54.068Z,83.41
2023-04-11T15:38:02.276Z,83.28
2023-04-11T15:43:09.418Z,83.46
2023-04-11T15:48:14.345Z,83.42
2023-04-11T15:53:18.710Z,82.95
2023-04-11T15:58:22.503Z,83.09
2023-04-11T16:03:32.049Z,82.90
2023-04-11T16:08:36.002Z,82.65
2023-04-11T16:13:44.331Z,82.78
2023-04-11T16:18:48.159Z,82.89
2023-04-11T16:23:55.397Z,82.23
2023-04-11T16:28:59.455Z,80.89
2023-04-11T16:34:11.294Z,80.68
2023-04-11T16:39:25.096Z,79.85
2023-04-11T16:50:12.455Z,77.01
2023-04-11T16:55:17.210Z,75.40
2023-04-11T17:00:21.227Z,73.62
2023-04-11T17:05:25.132Z,75.11
2023-04-11T17:10:28.920Z,77.09
2023-04-11T17:15:35.107Z,78.41
2023-04-11T17:20:38.845Z,79.43
2023-04-11T17:25:42.808Z,80.67
2023-04-11T17:30:48.966Z,81.50
2023-04-11T17:35:53.096Z,82.71
2023-04-11T17:41:00.323Z,82.53
2023-04-11T17:46:10.926Z,82.00
2023-04-11T17:51:15.000Z,81.06
2023-04-11T17:56:19.996Z,81.33
2023-04-11T18:01:25.430Z,81.19
2023-04-11T18:06:30.100Z,81.72
2023-04-11T18:11:38.204Z,82.59
2023-04-11T18:16:42.734Z,82.83
2023-04-11T18:21:48.959Z,82.65
2023-04-11T18:26:53.687Z,81.78
2023-04-11T18:31:58.188Z,81.29
2023-04-11T18:37:02.804Z,80.38
2023-04-11T18:42:06.910Z,80.25
2023-04-11T18:47:18.631Z,80.78
2023-04-11T18:52:24.276Z,81.04
2023-04-11T18:57:33.814Z,81.43
2023-04-11T19:02:39.895Z,82.18
2023-04-11T19:07:46.489Z,82.81
2023-04-11T19:12:51.645Z,83.09
2023-04-11T19:17:58.404Z,82.91
2023-04-11T19:23:03.427Z,83.24
2023-04-11T19:28:13.707Z,83.57
2023-04-11T19:33:20.911Z,83.99
2023-04-11T19:38:26.730Z,84.45
2023-04-11T19:43:36.302Z,85.17
2023-04-11T19:48:43.898Z,85.39
2023-04-11T19:53:48.608Z,86.38
2023-04-11T19:58:56.957Z,86.95
2023-04-11T20:04:03.961Z,87.31
2023-04-11T20:09:16.506Z,87.91
2023-04-11T20:14:22.506Z,87.92
2023-04-11T20:19:29.908Z,87.50
2023-04-11T20:24:35.069Z,87.36
2023-04-11T20:29:41.735Z,88.41
2023-04-11T20:34:46.494Z,88.82
2023-04-11T20:39:51.800Z,89.04
2023-04-11T20:45:03.291Z,88.72
2023-04-11T20:50:10.850Z,87.60
2023-04-11T20:55:14.967Z,89.67
2023-04-11T21:00:20.248Z,90.71
2023-04-11T21:05:25.282Z,90.66
2023-04-11T21:10:29.270Z,90.73
2023-04-11T21:15:35.181Z,90.35
2023-04-11T21:20:40.922Z,89.90
2023-04-11T21:25:44.820Z,89.86
2023-04-11T21:30:48.505Z,90.64
2023-04-11T21:35:55.927Z,91.53
2023-04-11T21:41:02.623Z,92.71
2023-04-11T21:46:07.898Z,93.20
2023-04-11T21:51:20.952Z,92.96
2023-04-11T21:56:24.652Z,93.01
2023-04-11T22:01:29.575Z,93.30
2023-04-11T22:06:33.356Z,93.30
2023-04-11T22:11:37.120Z,93.09
2023-04-11T22:16:42.615Z,92.85
2023-04-11T22:21:55.892Z,92.87
2023-04-11T22:26:59.854Z,92.79
2023-04-11T22:32:04.609Z,92.57
2023-04-11T22:37:08.586Z,92.41
2023-04-11T22:42:13.025Z,92.15
2023-04-11T22:47:17.072Z,92.07
2023-04-11T22:52:26.428Z,91.92
2023-04-11T22:57:30.104Z,91.77
2023-04-11T23:02:36.328Z,91.79
2023-04-11T23:07:40.232Z,91.59
2023-04-11T23:12:44.929Z,91.63
2023-04-11T23:17:49.587Z,91.54
2023-04-11T23:22:54.048Z,91.51
2023-04-11T23:27:58.296Z,91.81
2023-04-11T23:33:03.106Z,92.53
2023-04-11T23:38:07.086Z,94.21
2023-04-11T23:43:10.872Z,94.90
2023-04-11T23:48:14.606Z,95.17
2023-04-11T23:53:18.469Z,95.25
2023-04-11T23:58:22.181Z,95.34
